Time;durP1;ratioP1;P1;durP2;ratioP2;P2;SDS_P1;SDS_P2;PMS_P1;PMS_P2;Temp;Humidity;BMP_temperature;BMP_pressure;BME280_temperature;BME280_humidity;BME280_pressure;Samples;Min_cycle;Max_cycle;Signal;HPM_P1;HPM_P2
2024/04/15 02:36:26;;;;;;;10.40;4.70;;;;;;;15.71;73.90;98816.66;79997;1303;3012726;-66
2024/04/15 02:38:53;;;;;;;10.60;5.40;;;;;;;15.46;74.08;98820.48;79214;1301;3014715;-65
2024/04/15 02:41:19;;;;;;;11.70;5.10;;;;;;;15.23;75.09;98819.61;79134;1299;3011497;-66
2024/04/15 02:43:47;;;;;;;8.10;4.60;;;;;;;15.05;75.22;98824.64;78058;1302;3052295;-67
2024/04/15 02:46:14;;;;;;;11.20;5.00;;;;;;;14.84;76.71;98822.70;79204;1301;3019048;-66
2024/04/15 02:48:40;;;;;;;11.40;5.20;;;;;;;14.61;77.87;98822.94;79343;1301;3011879;-67
2024/04/15 02:51:08;;;;;;;9.20;4.30;;;;;;;14.71;77.24;98831.86;78197;1298;3027410;-67
2024/04/15 02:53:35;;;;;;;11.60;4.80;;;;;;;15.22;76.77;98844.70;79490;1295;3020683;-67
2024/04/15 02:56:02;;;;;;;10.60;4.80;;;;;;;15.47;75.00;98847.95;79397;1302;3013695;-65
2024/04/15 02:58:30;;;;;;;13.00;4.90;;;;;;;15.33;75.21;98852.38;78227;1299;3027971;-66
2024/04/15 03:00:57;;;;;;;9.80;5.10;;;;;;;15.13;75.52;98851.14;79324;1295;3013754;-68
2024/04/15 03:03:23;;;;;;;11.60;5.10;;;;;;;14.98;75.68;98851.07;79634;1296;3013930;-63
2024/04/15 03:05:51;;;;;;;13.30;5.40;;;;;;;14.66;77.44;98848.02;78201;1300;3029426;-67
2024/04/15 03:08:18;;;;;;;12.10;6.70;;;;;;;14.54;77.65;98850.05;79578;1301;3013208;-66
2024/04/15 03:10:44;;;;;;;10.70;5.00;;;;;;;14.53;77.93;98857.95;79366;1301;3012981;-67
2024/04/15 03:13:12;;;;;;;11.00;4.60;;;;;;;15.07;76.22;98859.10;78186;1301;3029950;-66
2024/04/15 03:15:39;;;;;;;12.60;5.20;;;;;;;15.46;73.81;98867.30;79274;1301;3013046;-66
2024/04/15 03:18:05;;;;;;;9.10;5.10;;;;;;;15.55;73.38;98870.16;79341;1301;3013022;-65
2024/04/15 03:20:33;;;;;;;10.50;5.60;;;;;;;15.46;73.14;98866.05;78218;1299;3029462;-66
2024/04/15 03:23:00;;;;;;;16.70;6.20;;;;;;;15.27;73.70;98869.80;79411;1295;3013029;-66
2024/04/15 03:25:27;;;;;;;14.10;6.80;;;;;;;15.23;73.38;98873.21;79330;1300;3011641;-67
2024/04/15 03:27:54;;;;;;;11.80;6.30;;;;;;;15.04;73.93;98878.59;78123;1301;3027925;-65
2024/04/15 03:30:21;;;;;;;18.30;6.00;;;;;;;14.87;74.45;98884.81;79679;1301;3012997;-68
2024/04/15 03:32:47;;;;;;;12.60;5.60;;;;;;;14.82;74.33;98886.33;80028;1295;3011550;-67
2024/04/15 03:35:17;;;;;;;15.60;5.60;;;;;;;14.84;74.12;98881.06;78844;1295;3026766;-65
2024/04/15 03:37:43;;;;;;;9.60;5.00;;;;;;;14.81;74.31;98888.19;79402;1298;3013814;-69
2024/04/15 03:40:10;;;;;;;13.40;4.00;;;;;;;14.87;73.58;98890.98;79417;1298;3012009;-63
2024/04/15 03:42:38;;;;;;;9.30;3.00;;;;;;;15.45;72.07;98893.06;78342;1301;3052239;-61
2024/04/15 03:45:07;;;;;;;9.40;3.10;;;;;;;15.96;69.80;98894.88;79653;1295;3013289;-63
2024/04/15 03:47:33;;;;;;;10.50;2.70;;;;;;;16.01;68.83;98889.42;79813;1296;3013448;-63
2024/04/15 03:50:01;;;;;;;8.00;3.00;;;;;;;15.99;68.71;98891.80;78339;1301;3048249;-65
2024/04/15 03:52:30;;;;;;;8.50;3.00;;;;;;;15.77;69.22;98897.81;79257;1299;3012739;-63
2024/04/15 03:54:57;;;;;;;7.80;2.90;;;;;;;15.66;69.74;98896.31;79264;1299;3011420;-65
2024/04/15 03:57:25;;;;;;;6.40;3.10;;;;;;;15.56;70.12;98903.78;78246;1301;3052220;-62
2024/04/15 03:59:52;;;;;;;10.50;2.70;;;;;;;15.59;70.15;98901.73;79602;1301;3013621;-65
2024/04/15 04:02:19;;;;;;;10.00;2.90;;;;;;;15.42;70.90;98910.29;79330;1296;3011993;-63
2024/04/15 04:04:47;;;;;;;7.40;2.80;;;;;;;15.47;70.59;98911.86;78110;1300;3026657;-60
2024/04/15 04:07:13;;;;;;;8.80;2.50;;;;;;;15.42;71.29;98905.02;79290;1295;3013937;-62
2024/04/15 04:09:41;;;;;;;7.30;2.70;;;;;;;15.47;71.14;98905.09;79253;1301;3011597;-63
2024/04/15 04:12:08;;;;;;;12.40;2.70;;;;;;;15.47;71.02;98908.65;78428;1300;3026725;-62
2024/04/15 04:14:35;;;;;;;8.80;2.50;;;;;;;15.42;71.21;98913.64;79451;1301;3013460;-62
2024/04/15 04:17:02;;;;;;;7.20;2.20;;;;;;;15.37;71.58;98911.79;79414;1295;3012858;-61
2024/04/15 04:19:35;;;;;;;4.40;2.00;;;;;;;15.35;71.89;98916.75;78101;1300;3049357;-63
2024/04/15 04:22:02;;;;;;;4.80;2.20;;;;;;;15.30;71.87;98909.58;79295;1296;3012987;-63
2024/04/15 04:24:29;;;;;;;4.40;1.50;;;;;;;15.30;72.24;98914.40;79304;1301;3013800;-59
2024/04/15 04:26:57;;;;;;;4.50;1.40;;;;;;;15.35;72.34;98923.66;78061;1300;3053661;-60
2024/04/15 04:29:23;;;;;;;2.80;1.50;;;;;;;15.94;70.60;98929.30;79190;1301;3021464;-62
2024/04/15 04:31:50;;;;;;;4.90;1.60;;;;;;;16.32;69.00;98926.35;79337;1295;3011551;-59
2024/04/15 04:34:18;;;;;;;4.40;1.80;;;;;;;16.41;68.42;98927.13;78135;1295;3028468;-58
2024/04/15 04:36:44;;;;;;;5.00;2.20;;;;;;;16.25;68.53;98925.76;79511;1295;3013035;-62
2024/04/15 04:39:12;;;;;;;5.70;1.90;;;;;;;16.25;68.68;98936.92;79405;1300;3011946;-64
2024/04/15 04:41:40;;;;;;;6.60;1.80;;;;;;;16.19;68.87;98941.73;77903;1301;3052729;-62
2024/04/15 04:44:06;;;;;;;3.80;1.60;;;;;;;16.01;69.62;98938.70;79421;1301;3013033;-62
2024/04/15 04:46:33;;;;;;;5.00;1.80;;;;;;;15.75;70.63;98940.38;79902;1295;3011653;-61
2024/04/15 04:49:01;;;;;;;5.50;2.10;;;;;;;15.64;71.40;98948.05;78139;1301;3026285;-61
2024/04/15 04:51:28;;;;;;;6.00;1.70;;;;;;;15.57;71.60;98950.08;80106;1296;3013290;-62
2024/04/15 04:53:54;;;;;;;4.70;1.90;;;;;;;15.46;72.03;98945.61;79334;1300;3011948;-63
2024/04/15 04:56:22;;;;;;;5.50;2.10;;;;;;;15.39;72.27;98947.42;78371;1301;3026655;-64
2024/04/15 04:58:49;;;;;;;4.90;2.40;;;;;;;15.38;72.93;98944.23;79559;1300;3012969;-59
2024/04/15 05:01:19;;;;;;;9.60;3.00;;;;;;;15.38;72.54;98940.18;79364;1299;3013302;-62
2024/04/15 05:03:48;;;;;;;5.20;2.60;;;;;;;15.38;72.24;98944.89;78169;1296;3048022;-65
2024/04/15 05:06:16;;;;;;;8.20;2.20;;;;;;;15.35;72.22;98954.66;79434;1296;3013286;-59
2024/04/15 05:08:45;;;;;;;5.70;2.10;;;;;;;15.30;72.51;98958.84;78822;1295;3011531;-63
2024/04/15 05:11:12;;;;;;;6.00;1.90;;;;;;;15.29;72.54;98961.92;79575;1300;3013113;-63
2024/04/15 05:13:39;;;;;;;4.10;1.30;;;;;;;15.36;72.44;98959.88;79379;1295;3013417;-60
2024/04/15 05:16:11;;;;;;;3.70;1.50;;;;;;;16.04;70.37;98967.98;78213;1301;3028171;-62
2024/04/15 05:18:39;;;;;;;3.80;1.80;;;;;;;16.65;67.95;98966.08;79278;1299;3012925;-60
2024/04/15 05:21:16;;;;;;;10.60;1.90;;;;;;;16.56;67.65;98964.10;78123;1296;3049353;-62
2024/04/15 05:23:44;;;;;;;3.10;1.50;;;;;;;16.50;67.64;98958.42;78149;1295;3053915;-62
2024/04/15 05:26:10;;;;;;;4.50;1.60;;;;;;;16.41;67.94;98961.04;79597;1311;3018493;-61
2024/04/15 05:28:37;;;;;;;6.50;1.70;;;;;;;16.29;67.85;98972.25;79530;1302;3011652;-61
2024/04/15 05:31:05;;;;;;;4.30;1.80;;;;;;;16.19;67.84;98976.90;78295;1296;3027303;-59
2024/04/15 05:33:32;;;;;;;3.00;1.70;;;;;;;16.09;68.04;98980.40;79511;1295;3012850;-66
2024/04/15 05:35:59;;;;;;;4.90;1.60;;;;;;;16.02;67.94;98981.56;79484;1295;3011809;-63
2024/04/15 05:38:29;;;;;;;4.10;1.40;;;;;;;16.06;67.75;98978.89;78103;1296;3053608;-61
2024/04/15 05:40:56;;;;;;;3.80;1.70;;;;;;;16.04;67.63;98979.15;79448;1301;3011612;-67
2024/04/15 05:43:22;;;;;;;7.20;2.00;;;;;;;16.05;67.51;98974.42;79303;1301;3011748;-60
2024/04/15 05:45:50;;;;;;;7.90;1.80;;;;;;;16.12;67.25;98968.88;78213;1301;3068649;-64
2024/04/15 05:48:17;;;;;;;4.80;1.80;;;;;;;16.01;66.85;98970.73;79219;1300;3018827;-65
2024/04/15 05:50:44;;;;;;;5.80;2.00;;;;;;;16.07;67.38;98970.89;79287;1296;3011713;-62
2024/04/15 05:53:13;;;;;;;3.70;1.80;;;;;;;16.19;66.90;98971.94;78216;1296;3025233;-64
2024/04/15 05:55:40;;;;;;;6.40;1.70;;;;;;;16.23;66.58;98978.31;79421;1300;3013186;-62
2024/04/15 05:58:07;;;;;;;6.30;1.90;;;;;;;16.34;66.10;98974.21;79385;1295;3014394;-63
2024/04/15 06:00:35;;;;;;;8.20;1.90;;;;;;;16.41;65.53;98973.63;78138;1301;3069897;-63
2024/04/15 06:03:02;;;;;;;3.00;1.60;;;;;;;16.33;64.96;98983.89;79596;1300;3018245;-64
2024/04/15 06:05:28;;;;;;;7.50;1.90;;;;;;;16.25;65.01;98983.71;79480;1295;3011793;-71
2024/04/15 06:07:56;;;;;;;7.80;1.70;;;;;;;16.19;64.98;98984.77;78097;1300;3027915;-64
2024/04/15 06:10:23;;;;;;;7.60;2.10;;;;;;;16.21;65.09;98980.95;79527;1298;3013070;-68
2024/04/15 06:12:51;;;;;;;6.50;2.30;;;;;;;16.33;64.73;98978.39;79477;1298;3013322;-67
2024/04/15 06:15:19;;;;;;;7.30;1.70;;;;;;;16.37;64.77;98973.45;78397;1298;3067650;-68
2024/04/15 06:17:46;;;;;;;4.30;1.90;;;;;;;16.37;64.30;98974.65;79502;1295;3013325;-63
2024/04/15 06:20:12;;;;;;;5.00;1.90;;;;;;;16.36;64.55;98976.52;79451;1298;3011652;-67
2024/04/15 06:22:40;;;;;;;10.40;4.30;;;;;;;16.44;63.78;98983.36;78251;1298;3028039;-66
2024/04/15 06:25:07;;;;;;;8.90;4.20;;;;;;;16.34;62.60;98986.45;79441;1297;3013464;-65
2024/04/15 06:27:34;;;;;;;8.20;2.90;;;;;;;16.19;62.65;98984.59;79448;1296;3011636;-67
2024/04/15 06:30:04;;;;;;;7.90;2.40;;;;;;;16.17;63.87;98982.64;78845;1297;3027545;-64
2024/04/15 06:32:31;;;;;;;5.90;2.20;;;;;;;16.16;64.20;98980.73;79689;1296;3012007;-63
2024/04/15 06:35:00;;;;;;;6.50;1.90;;;;;;;16.32;63.38;98989.41;79058;1294;3011828;-64
2024/04/15 06:37:26;;;;;;;4.80;1.70;;;;;;;16.32;63.46;98991.36;79571;1296;3020647;-64
2024/04/15 06:39:53;;;;;;;5.40;1.80;;;;;;;16.42;62.86;98988.04;79413;1297;3011651;-65
2024/04/15 06:42:21;;;;;;;4.60;1.90;;;;;;;16.45;62.34;98987.19;78278;1297;3028584;-63
2024/04/15 06:44:48;;;;;;;7.00;2.00;;;;;;;16.62;62.03;98981.56;79607;1298;3014536;-63
2024/04/15 06:47:15;;;;;;;4.90;2.30;;;;;;;16.69;61.73;98976.66;79337;1298;3011899;-63
2024/04/15 06:49:43;;;;;;;5.40;1.90;;;;;;;16.76;60.50;98977.63;78310;1298;3057624;-63
2024/04/15 06:52:09;;;;;;;5.70;1.90;;;;;;;16.78;59.89;98973.17;79392;1298;3013638;-66
2024/04/15 06:54:38;;;;;;;4.00;1.70;;;;;;;16.87;59.16;98976.05;79376;1296;3013279;-63
2024/04/15 06:57:06;;;;;;;3.20;1.80;;;;;;;16.80;58.20;98975.84;78229;1297;3053128;-65
2024/04/15 06:59:33;;;;;;;5.80;1.50;;;;;;;16.75;57.58;98972.77;79459;1295;3013522;-65
2024/04/15 07:01:59;;;;;;;7.10;1.80;;;;;;;16.85;57.22;98973.43;79434;1296;3013236;-67
2024/04/15 07:04:27;;;;;;;4.10;1.60;;;;;;;16.88;56.92;98973.85;78292;1295;3025507;-66
2024/04/15 07:06:54;;;;;;;4.20;1.70;;;;;;;16.91;56.48;98981.86;79392;1299;3013747;-66
2024/04/15 07:09:20;;;;;;;7.50;2.20;;;;;;;16.85;57.63;98988.58;79687;1299;3013366;-64
2024/04/15 07:11:48;;;;;;;5.10;2.60;;;;;;;16.85;55.73;98983.61;78120;1297;3028506;-65
2024/04/15 07:14:15;;;;;;;8.90;2.10;;;;;;;16.87;56.13;98980.98;79819;1299;3013226;-69
2024/04/15 07:16:42;;;;;;;5.90;1.70;;;;;;;17.04;56.39;98981.30;79827;1296;3011516;-64
2024/04/15 07:19:10;;;;;;;6.50;1.90;;;;;;;17.10;56.23;98977.96;78405;1299;3056680;-64
2024/04/15 07:21:37;;;;;;;3.90;2.00;;;;;;;17.16;56.02;98969.61;79420;1299;3020639;-65
2024/04/15 07:24:04;;;;;;;8.00;1.80;;;;;;;17.15;55.83;98973.55;79388;1295;3013246;-66
2024/04/15 07:26:33;;;;;;;6.60;1.70;;;;;;;17.18;55.48;98980.55;78397;1298;3052753;-65
2024/04/15 07:29:00;;;;;;;5.30;1.40;;;;;;;17.33;55.97;98973.81;79821;1298;3012788;-64
2024/04/15 07:31:26;;;;;;;4.00;1.50;;;;;;;17.49;56.24;98971.24;79738;1294;3011950;-66
2024/04/15 07:33:54;;;;;;;5.70;1.90;;;;;;;17.53;55.24;98981.94;78363;1295;3028610;-64
2024/04/15 07:36:21;;;;;;;4.00;1.50;;;;;;;17.62;54.81;98980.46;79721;1294;3018581;-66
2024/04/15 07:38:47;;;;;;;7.80;1.70;;;;;;;17.62;54.51;98980.96;79812;1298;3011565;-63
2024/04/15 07:41:15;;;;;;;4.60;1.50;;;;;;;17.73;54.46;98982.01;78583;1298;3026212;-69
2024/04/15 07:43:42;;;;;;;5.70;1.60;;;;;;;17.77;53.83;98992.23;79564;1298;3012873;-65
2024/04/15 07:46:09;;;;;;;5.00;2.10;;;;;;;17.77;53.87;98988.55;79812;1298;3011667;-67
2024/04/15 07:48:36;;;;;;;3.50;1.60;;;;;;;17.82;54.24;98980.24;78317;1296;3026643;-66
2024/04/15 07:51:03;;;;;;;5.60;2.00;;;;;;;17.99;53.88;98973.31;79455;1299;3013721;-64
2024/04/15 07:53:30;;;;;;;9.40;2.10;;;;;;;18.19;53.59;98977.17;79486;1296;3011879;-65
2024/04/15 07:55:58;;;;;;;8.90;2.20;;;;;;;18.33;53.53;98975.91;78648;1306;3025300;-63
2024/04/15 07:58:25;;;;;;;6.20;2.50;;;;;;;18.45;52.80;98977.39;79748;1297;3013505;-64
2024/04/15 08:00:53;;;;;;;9.10;2.40;;;;;;;18.54;53.02;98972.34;79712;1299;3011644;-68
2024/04/15 08:03:21;;;;;;;6.10;2.40;;;;;;;18.64;51.48;98973.52;78520;1298;3056132;-67
2024/04/15 08:05:47;;;;;;;7.00;2.30;;;;;;;18.65;49.60;98976.98;80310;1297;3012821;-64
2024/04/15 08:08:14;;;;;;;5.20;2.30;;;;;;;18.58;49.62;98979.01;80091;1293;3013722;-66
2024/04/15 08:10:42;;;;;;;5.20;2.10;;;;;;;18.57;48.96;98974.88;78951;1298;3027750;-64
2024/04/15 08:13:08;;;;;;;3.40;2.00;;;;;;;18.63;49.54;98973.02;79694;1298;3013360;-65
2024/04/15 08:15:35;;;;;;;8.00;2.50;;;;;;;18.66;49.31;98975.04;79511;1298;3013348;-64
2024/04/15 08:18:03;;;;;;;16.00;2.40;;;;;;;18.81;48.43;98980.50;78336;1296;3026381;-64
2024/04/15 08:20:30;;;;;;;4.50;1.90;;;;;;;18.96;46.83;98978.61;79740;1297;3013626;-62
2024/04/15 08:22:57;;;;;;;9.00;2.50;;;;;;;19.10;46.94;98986.37;79698;1296;3013541;-65
2024/04/15 08:25:25;;;;;;;9.00;2.20;;;;;;;19.17;46.10;98986.93;78311;1298;3051716;-63
2024/04/15 08:27:52;;;;;;;6.30;2.00;;;;;;;19.26;45.53;98985.80;79911;1298;3012956;-66
2024/04/15 08:30:22;;;;;;;7.30;2.20;;;;;;;19.30;45.37;98983.45;79811;1298;3011543;-63
2024/04/15 08:32:51;;;;;;;5.40;1.90;;;;;;;19.31;44.24;98985.32;78815;1295;3055958;-65
2024/04/15 08:35:17;;;;;;;9.00;2.30;;;;;;;19.44;43.45;98984.04;79577;1298;3013385;-65
2024/04/15 08:37:44;;;;;;;5.90;2.10;;;;;;;19.54;42.92;98980.55;79357;1294;3011744;-62
2024/04/15 08:40:12;;;;;;;6.20;1.90;;;;;;;19.59;42.08;98987.95;77976;1300;3053676;-62
2024/04/15 08:42:50;;;;;;;4.50;1.70;;;;;;;19.63;41.72;98988.97;79410;1298;3012866;-65
2024/04/15 08:45:23;;;;;;;6.80;1.60;;;;;;;19.59;42.08;98997.45;78212;1297;3051532;-61
2024/04/15 08:47:50;;;;;;;;;;;;;;;19.36;43.58;99003.70;79329;1295;3013643;-65
2024/04/15 08:50:20;;;;;;;10.80;2.30;;;;;;;19.14;44.25;99008.67;78246;1298;3049326;-65
2024/04/15 08:52:53;;;;;;;11.10;2.30;;;;;;;19.06;44.50;99000.43;79646;1298;3013057;-65
2024/04/15 08:55:24;;;;;;;16.10;2.40;;;;;;;19.06;44.43;98997.46;78237;1297;3049452;-66
2024/04/15 08:57:52;;;;;;;6.80;2.20;;;;;;;19.21;45.02;98998.59;79732;1298;3012991;-65
2024/04/15 09:00:21;;;;;;;4.70;2.20;;;;;;;19.41;45.09;99000.49;78294;1298;3052997;-68
2024/04/15 09:02:50;;;;;;;8.40;2.10;;;;;;;19.43;44.81;98997.20;79592;1295;3013600;-65
2024/04/15 09:05:19;;;;;;;10.70;2.50;;;;;;;19.20;45.30;98999.19;79712;1298;3011639;-66
2024/04/15 09:07:47;;;;;;;6.70;2.40;;;;;;;19.42;45.45;98992.30;79700;1295;3013451;-65
2024/04/15 09:10:13;;;;;;;6.60;2.90;;;;;;;19.74;45.16;98984.70;79433;1301;3013221;-65
2024/04/15 09:12:43;;;;;;;12.50;2.80;;;;;;;19.98;44.95;98982.13;78689;1298;3050214;-64
2024/04/15 09:15:11;;;;;;;6.00;2.30;;;;;;;20.26;44.76;98982.66;79576;1299;3013665;-65
2024/04/15 09:17:37;;;;;;;8.90;2.90;;;;;;;20.50;44.39;98986.08;79501;1298;3013428;-63
2024/04/15 09:20:06;;;;;;;11.00;3.00;;;;;;;20.54;44.26;98985.67;78252;1308;3053275;-65
2024/04/15 09:22:34;;;;;;;9.20;3.60;;;;;;;20.43;44.85;98987.73;79920;1295;3012951;-62
2024/04/15 09:25:05;;;;;;;12.10;3.40;;;;;;;20.10;45.30;98989.39;79538;1296;3012004;-67
2024/04/15 09:27:33;;;;;;;8.70;3.40;;;;;;;20.17;45.06;98985.46;78764;1298;3048968;-65
2024/04/15 09:30:00;;;;;;;12.60;4.00;;;;;;;20.34;44.73;98971.16;79554;1298;3013129;-64
2024/04/15 09:32:27;;;;;;;9.60;4.30;;;;;;;20.35;44.65;98974.29;79671;1298;3011662;-69
2024/04/15 09:35:00;;;;;;;14.10;5.00;;;;;;;20.25;45.35;98971.19;78218;1298;3026350;-69
2024/04/15 09:37:27;;;;;;;10.10;3.60;;;;;;;20.40;45.30;98965.30;79379;1296;3011481;-64
2024/04/15 09:39:55;;;;;;;11.40;3.70;;;;;;;20.40;45.99;98966.38;78220;1298;3050610;-67
2024/04/15 09:42:22;;;;;;;12.70;3.60;;;;;;;20.55;45.81;98957.77;79626;1296;3013361;-70
2024/04/15 09:44:49;;;;;;;10.40;4.20;;;;;;;20.71;45.58;98948.05;79272;1295;3011852;-66
2024/04/15 09:47:17;;;;;;;11.40;3.90;;;;;;;20.74;45.35;98949.69;78346;1298;3052176;-68
2024/04/15 09:49:46;;;;;;;16.90;4.00;;;;;;;20.73;45.72;98952.83;79571;1299;3019255;-67
2024/04/15 09:52:20;;;;;;;9.90;3.30;;;;;;;20.68;45.71;98951.09;79772;1295;3013416;-67
2024/04/15 09:55:02;;;;;;;4.10;2.10;;;;;;;20.75;44.99;98946.25;78375;1298;3049491;-66
2024/04/15 09:57:31;;;;;;;10.70;2.50;;;;;;;20.61;45.20;98934.59;78363;1296;3053687;-67
2024/04/15 09:59:58;;;;;;;5.40;2.20;;;;;;;20.86;45.25;98936.11;79673;1295;3013294;-65
2024/04/15 10:02:27;;;;;;;11.30;3.00;;;;;;;21.19;44.28;98931.36;79415;1298;3011654;-63
2024/04/15 10:04:59;;;;;;;5.60;2.80;;;;;;;21.18;44.59;98936.08;78182;1308;3069443;-61
2024/04/15 10:07:27;;;;;;;13.00;3.30;;;;;;;21.27;44.63;98925.80;79783;1296;3011474;-64
2024/04/15 10:09:55;;;;;;;6.30;3.20;;;;;;;21.34;44.27;98920.86;78376;1298;3056465;-63
2024/04/15 10:12:21;;;;;;;11.10;3.10;;;;;;;21.18;43.78;98923.04;79390;1298;3013704;-63
2024/04/15 10:14:50;;;;;;;5.80;2.30;;;;;;;21.10;43.99;98916.67;79215;1295;3011938;-62
2024/04/15 10:17:18;;;;;;;11.10;2.80;;;;;;;21.21;43.92;98914.35;78397;1295;3051653;-63
2024/04/15 10:19:46;;;;;;;6.90;1.90;;;;;;;21.36;43.64;98912.99;79520;1298;3020863;-60
2024/04/15 10:22:16;;;;;;;4.30;2.00;;;;;;;21.27;43.66;98930.05;79059;1296;3011635;-63
2024/04/15 10:24:43;;;;;;;3.40;1.70;;;;;;;21.27;43.63;98929.02;79536;1295;3012786;-66
2024/04/15 10:27:10;;;;;;;3.70;1.60;;;;;;;21.18;43.46;98928.80;79243;1295;3011592;-66
2024/04/15 10:29:38;;;;;;;8.70;1.60;;;;;;;21.08;43.84;98933.45;78212;1296;3053799;-65
2024/04/15 10:32:06;;;;;;;4.50;1.30;;;;;;;21.23;43.46;98923.34;79527;1301;3013221;-66
2024/04/15 10:34:40;;;;;;;5.10;1.50;;;;;;;21.38;42.73;98936.64;79673;1295;3011948;-61
2024/04/15 10:37:11;;;;;;;4.40;1.40;;;;;;;21.36;42.37;98946.26;78504;1295;3069478;-66
2024/04/15 10:39:47;;;;;;;7.60;1.70;;;;;;;21.37;42.77;98934.60;79689;1295;3011873;-63
2024/04/15 10:42:16;;;;;;;3.30;1.20;;;;;;;21.55;43.04;98931.52;78211;1294;3056131;-65
2024/04/15 10:44:43;;;;;;;3.10;1.20;;;;;;;21.75;43.26;98908.31;79670;1296;3013772;-67
2024/04/15 10:47:10;;;;;;;8.70;1.40;;;;;;;21.74;42.67;98915.90;79521;1294;3011660;-66
2024/04/15 10:49:37;;;;;;;2.50;1.30;;;;;;;21.74;42.79;98913.52;78383;1297;3028713;-66
2024/04/15 10:52:04;;;;;;;4.00;1.30;;;;;;;21.67;41.77;98906.73;79533;1295;3013359;-64
2024/04/15 10:54:32;;;;;;;10.00;1.60;;;;;;;21.88;41.21;98890.27;79591;1294;3011675;-64
2024/04/15 10:57:00;;;;;;;2.80;1.20;;;;;;;21.92;40.79;98893.20;78359;1295;3056816;-64
2024/04/15 10:59:27;;;;;;;7.60;1.60;;;;;;;22.03;40.17;98891.27;79693;1295;3013060;-66
2024/04/15 11:01:54;;;;;;;10.30;1.60;;;;;;;21.92;39.94;98889.66;79220;1301;3013132;-64
2024/04/15 11:04:21;;;;;;;4.90;1.40;;;;;;;21.75;39.52;98877.41;78404;1296;3029668;-64
2024/04/15 11:06:48;;;;;;;3.60;1.20;;;;;;;21.75;39.40;98870.42;79570;1294;3019526;-66
2024/04/15 11:09:15;;;;;;;8.50;1.30;;;;;;;21.82;39.26;98862.58;79430;1295;3013210;-63
2024/04/15 11:11:43;;;;;;;6.40;1.20;;;;;;;22.19;38.29;98861.16;78267;1298;3026437;-68
2024/04/15 11:14:10;;;;;;;4.40;1.10;;;;;;;22.03;37.54;98862.20;79442;1294;3013568;-65
2024/04/15 11:16:46;;;;;;;3.80;1.00;;;;;;;22.05;37.75;98851.95;79473;1294;3011641;-68
2024/04/15 11:19:16;;;;;;;5.20;1.30;;;;;;;21.99;36.81;98846.02;78349;1298;3052256;-67
2024/04/15 11:21:42;;;;;;;9.00;1.40;;;;;;;22.04;36.19;98844.16;79553;1298;3012593;-66
2024/04/15 11:24:09;;;;;;;8.00;1.40;;;;;;;22.19;36.85;98832.30;79556;1295;3011663;-67
2024/04/15 11:26:37;;;;;;;3.60;1.00;;;;;;;22.25;36.89;98838.86;78349;1295;3055963;-63
2024/04/15 11:29:04;;;;;;;7.90;1.30;;;;;;;22.43;36.89;98826.16;79875;1296;3013210;-62
2024/04/15 11:31:31;;;;;;;4.40;1.20;;;;;;;22.58;36.97;98803.48;79616;1294;3013070;-64
2024/04/15 11:33:59;;;;;;;6.40;1.80;;;;;;;22.82;37.14;98788.46;78497;1295;3026519;-63
2024/04/15 11:36:25;;;;;;;7.60;1.20;;;;;;;23.08;36.99;98782.45;79612;1295;3012649;-68
2024/04/15 11:38:52;;;;;;;1.70;1.10;;;;;;;23.16;36.76;98785.83;79489;1298;3011602;-71
2024/04/15 11:41:20;;;;;;;5.90;1.30;;;;;;;23.41;36.82;98776.21;78243;1297;3028308;-66
2024/04/15 11:43:46;;;;;;;5.60;1.30;;;;;;;23.57;36.50;98780.80;79446;1298;3012961;-64
2024/04/15 11:46:17;;;;;;;6.20;1.30;;;;;;;23.53;36.23;98788.52;79556;1296;3011652;-63
2024/04/15 11:48:45;;;;;;;5.80;1.60;;;;;;;23.54;36.33;98777.27;78495;1295;3050327;-69
2024/04/15 11:51:13;;;;;;;8.90;2.00;;;;;;;23.80;35.88;98771.11;79632;1298;3014650;-62
2024/04/15 11:53:40;;;;;;;10.60;1.90;;;;;;;23.71;35.32;98792.91;79476;1295;3011669;-66
2024/04/15 11:56:08;;;;;;;11.50;1.70;;;;;;;23.38;35.62;98799.15;78444;1298;3057547;-61
2024/04/15 11:58:35;;;;;;;10.90;1.70;;;;;;;23.35;35.92;98773.66;79425;1295;3013490;-64
2024/04/15 12:01:01;;;;;;;5.00;1.40;;;;;;;23.34;36.21;98765.44;79387;1301;3013551;-63
2024/04/15 12:03:31;;;;;;;10.40;1.50;;;;;;;23.49;36.08;98775.26;78407;1309;3051486;-66
2024/04/15 12:05:58;;;;;;;12.20;1.40;;;;;;;23.63;36.13;98757.55;79575;1295;3013348;-62
2024/04/15 12:08:25;;;;;;;4.50;1.40;;;;;;;23.74;35.87;98753.33;79391;1296;3011291;-61
2024/04/15 12:10:54;;;;;;;6.70;1.10;;;;;;;23.86;35.56;98743.23;78156;1295;3055665;-63
2024/04/15 12:13:20;;;;;;;4.60;1.40;;;;;;;23.70;35.61;98755.11;79510;1295;3020594;-63
2024/04/15 12:15:47;;;;;;;6.50;1.50;;;;;;;23.47;35.82;98744.42;79557;1296;3013604;-61
2024/04/15 12:18:15;;;;;;;8.20;1.40;;;;;;;23.36;36.34;98727.48;78334;1298;3028674;-64
2024/04/15 12:20:41;;;;;;;6.10;1.50;;;;;;;23.30;36.69;98718.33;79581;1298;3018753;-64
2024/04/15 12:23:08;;;;;;;5.10;1.50;;;;;;;23.05;37.24;98717.92;79772;1294;3011631;-66
2024/04/15 12:25:36;;;;;;;11.60;1.70;;;;;;;22.95;37.39;98710.61;78576;1298;3027022;-61
2024/04/15 12:28:03;;;;;;;6.30;1.50;;;;;;;22.99;37.64;98699.11;79363;1295;3018623;-63
2024/04/15 12:30:30;;;;;;;6.50;1.30;;;;;;;23.01;37.53;98705.27;79636;1298;3013246;-65
2024/04/15 12:32:58;;;;;;;6.20;1.50;;;;;;;23.42;36.60;98694.50;78142;1298;3053167;-65
2024/04/15 12:35:25;;;;;;;8.20;1.40;;;;;;;23.46;35.73;98711.94;79619;1295;3013493;-62
2024/04/15 12:37:51;;;;;;;5.80;1.30;;;;;;;23.40;35.83;98692.02;79592;1294;3012998;-62
2024/04/15 12:40:19;;;;;;;12.10;1.90;;;;;;;23.26;35.76;98672.48;78019;1301;3029107;-63
2024/04/15 12:42:46;;;;;;;4.30;1.40;;;;;;;23.59;35.26;98651.39;79403;1295;3013814;-60
2024/04/15 12:45:15;;;;;;;7.80;1.40;;;;;;;23.82;34.84;98647.56;79443;1298;3011626;-63
2024/04/15 12:47:43;;;;;;;11.70;1.60;;;;;;;23.95;34.69;98617.76;78700;1295;3052166;-65
2024/04/15 12:50:10;;;;;;;20.80;3.10;;;;;;;23.91;34.47;98624.77;79636;1298;3020434;-66
2024/04/15 12:52:37;;;;;;;19.10;3.10;;;;;;;23.76;34.62;98626.52;79606;1296;3011729;-65
2024/04/15 12:55:05;;;;;;;10.40;2.70;;;;;;;23.85;34.80;98631.23;78568;1296;3026704;-65
2024/04/15 12:57:31;;;;;;;9.00;3.00;;;;;;;23.90;35.24;98626.23;79505;1295;3013617;-63
2024/04/15 12:59:58;;;;;;;11.60;3.20;;;;;;;23.73;35.62;98631.02;80051;1298;3011599;-66
2024/04/15 13:02:27;;;;;;;11.40;2.90;;;;;;;23.94;35.58;98607.14;79849;1298;3055143;-65
2024/04/15 13:04:53;;;;;;;14.70;2.50;;;;;;;24.14;35.74;98609.30;79556;1298;3012968;-62
2024/04/15 13:07:20;;;;;;;13.00;3.00;;;;;;;24.21;35.58;98602.45;79411;1298;3012984;-67
2024/04/15 13:09:48;;;;;;;12.00;3.20;;;;;;;24.33;35.46;98598.56;78234;1298;3026411;-64
2024/04/15 13:12:15;;;;;;;7.60;2.30;;;;;;;24.35;35.28;98586.67;79452;1296;3013126;-68
2024/04/15 13:14:42;;;;;;;8.50;2.40;;;;;;;24.40;34.99;98582.76;79345;1295;3013553;-65
2024/04/15 13:17:13;;;;;;;29.70;3.30;;;;;;;24.50;34.37;98589.50;78253;1295;3026436;-69
2024/04/15 13:19:39;;;;;;;14.20;2.70;;;;;;;24.49;33.54;98579.80;79574;1298;3012976;-63
2024/04/15 13:22:08;;;;;;;13.40;1.90;;;;;;;24.64;33.45;98557.02;78995;1296;3011912;-67
2024/04/15 13:24:35;;;;;;;19.70;2.30;;;;;;;24.79;33.26;98560.09;79361;1296;3020798;-66
2024/04/15 13:27:02;;;;;;;12.40;2.30;;;;;;;24.81;33.32;98547.77;79431;1294;3011665;-63
2024/04/15 13:29:30;;;;;;;16.30;2.30;;;;;;;24.62;33.47;98540.70;78479;1296;3025883;-67
2024/04/15 13:31:56;;;;;;;16.00;2.30;;;;;;;24.77;33.54;98521.98;79402;1298;3020741;-64
2024/04/15 13:34:24;;;;;;;14.60;1.90;;;;;;;24.94;33.60;98521.48;79413;1298;3011817;-65
2024/04/15 13:36:55;;;;;;;25.70;2.20;;;;;;;24.83;33.84;98526.41;78133;1296;3068971;-64
2024/04/15 13:39:22;;;;;;;16.90;1.60;;;;;;;24.79;33.78;98521.21;79303;1296;3013370;-66
2024/04/15 13:41:51;;;;;;;18.80;1.80;;;;;;;24.95;33.51;98506.77;78911;1298;3011894;-65
2024/04/15 13:44:18;;;;;;;16.40;2.20;;;;;;;25.07;33.41;98500.02;79402;1296;3013246;-67
2024/04/15 13:46:45;;;;;;;8.50;1.80;;;;;;;25.22;33.39;98517.15;79517;1293;3011632;-66
2024/04/15 13:49:13;;;;;;;13.00;1.70;;;;;;;25.12;33.44;98505.76;78487;1298;3026269;-67
2024/04/15 13:51:40;;;;;;;16.00;1.60;;;;;;;24.81;33.75;98511.08;79551;1298;3013877;-64